createdAt,value
2023-04-19T00:05:32.065Z,98749.63
2023-04-19T00:10:54.025Z,98746.70
2023-04-19T00:16:16.973Z,98741.35
2023-04-19T00:21:38.968Z,98732.46
2023-04-19T00:27:02.297Z,98724.57
2023-04-19T00:32:24.643Z,98721.36
2023-04-19T00:37:47.527Z,98719.67
2023-04-19T00:43:09.861Z,98708.44
2023-04-19T00:48:31.539Z,98701.61
2023-04-19T00:53:53.943Z,98696.20
2023-04-19T00:59:16.319Z,98689.45
2023-04-19T01:04:38.280Z,98684.29
2023-04-19T01:10:02.900Z,98680.69
2023-04-19T01:15:24.723Z,98671.16
2023-04-19T01:20:46.611Z,98669.94
2023-04-19T01:26:08.361Z,98662.17
2023-04-19T01:31:30.480Z,98650.80
2023-04-19T01:36:52.246Z,98650.72
2023-04-19T01:42:14.249Z,98651.23
2023-04-19T01:47:36.007Z,98643.66
2023-04-19T01:53:01.137Z,98635.81
2023-04-19T01:58:23.543Z,98631.31
2023-04-19T02:03:45.423Z,98632.90
2023-04-19T02:09:07.252Z,98633.48
2023-04-19T02:14:28.820Z,98634.37
2023-04-19T02:19:50.662Z,98630.24
2023-04-19T02:25:12.542Z,98626.17
2023-04-19T02:30:34.085Z,98624.83
2023-04-19T02:35:55.966Z,98618.96
2023-04-19T02:41:18.430Z,98620.58
2023-04-19T02:46:40.961Z,98614.30
2023-04-19T02:52:03.419Z,98599.51
2023-04-19T02:57:26.063Z,98594.39
2023-04-19T03:02:48.965Z,98588.45
2023-04-19T03:08:11.270Z,98585.41
2023-04-19T03:13:33.623Z,98569.98
2023-04-19T03:18:56.160Z,98559.23
2023-04-19T03:24:22.390Z,98547.00
2023-04-19T03:29:47.285Z,98541.64
2023-04-19T03:35:32.400Z,98537.95
2023-04-19T03:40:59.322Z,98533.66
2023-04-19T03:46:25.744Z,98531.70
2023-04-19T03:51:47.946Z,98523.79
2023-04-19T03:57:13.387Z,98512.15
2023-04-19T04:02:39.324Z,98505.80
2023-04-19T04:08:04.228Z,98505.77
2023-04-19T04:13:27.162Z,98503.18
2023-04-19T04:18:59.880Z,98507.66
2023-04-19T04:24:22.506Z,98511.20
2023-04-19T04:29:58.889Z,98519.86
2023-04-19T04:35:20.896Z,98525.01
2023-04-19T04:40:55.847Z,98519.36
2023-04-19T04:46:18.476Z,98517.10
2023-04-19T04:51:40.883Z,98512.29
2023-04-19T04:57:03.152Z,98513.98
2023-04-19T05:02:25.807Z,98512.27
2023-04-19T05:07:48.528Z,98516.34
2023-04-19T05:13:10.696Z,98511.68
2023-04-19T05:18:33.427Z,98508.16
2023-04-19T05:23:55.596Z,98510.89
2023-04-19T05:29:18.032Z,98514.09
2023-04-19T05:34:45.086Z,98509.27
2023-04-19T05:40:12.220Z,98509.70
2023-04-19T05:45:35.533Z,98512.02
2023-04-19T05:50:59.092Z,98513.00
2023-04-19T05:56:31.236Z,98517.81
2023-04-19T06:01:53.383Z,98524.80
2023-04-19T06:07:30.179Z,98522.41
2023-04-19T06:12:54.409Z,98517.09
2023-04-19T06:18:18.765Z,98524.53
2023-04-19T06:23:43.847Z,98520.20
2023-04-19T06:29:06.595Z,98518.30
2023-04-19T06:34:28.483Z,98524.06
2023-04-19T06:39:50.462Z,98520.48
2023-04-19T06:45:12.679Z,98524.65
2023-04-19T06:50:34.832Z,98529.34
2023-04-19T06:56:01.255Z,98531.38
2023-04-19T07:01:23.368Z,98532.48
2023-04-19T07:06:48.883Z,98532.59
2023-04-19T07:12:12.683Z,98538.00
2023-04-19T07:17:36.265Z,98539.98
2023-04-19T07:22:59.818Z,98540.47
2023-04-19T07:28:22.057Z,98545.02
2023-04-19T07:33:44.159Z,98550.02
2023-04-19T07:39:05.998Z,98552.11
2023-04-19T07:44:31.036Z,98551.61
2023-04-19T07:49:53.654Z,98551.88
2023-04-19T07:55:15.234Z,98547.23
2023-04-19T08:00:38.355Z,98545.27
2023-04-19T08:06:09.849Z,98550.88
2023-04-19T08:11:32.289Z,98550.29
2023-04-19T08:17:22.062Z,98539.81
2023-04-19T08:22:37.428Z,98535.77
2023-04-19T08:27:59.458Z,98538.36
2023-04-19T08:33:21.613Z,98542.84
2023-04-19T08:38:46.685Z,98541.40
2023-04-19T08:44:13.034Z,98545.75
2023-04-19T08:49:37.052Z,98538.98
2023-04-19T08:55:04.424Z,98537.34
2023-04-19T09:00:26.257Z,98537.67
2023-04-19T09:05:48.289Z,98539.38
2023-04-19T09:11:10.562Z,98540.33
2023-04-19T09:16:32.488Z,98537.70
2023-04-19T09:21:55.290Z,98538.18
2023-04-19T09:27:26.089Z,98538.94
2023-04-19T09:32:49.289Z,98539.73
2023-04-19T09:38:12.434Z,98540.17
2023-04-19T09:49:21.748Z,98546.09
2023-04-19T09:54:47.026Z,98547.55
2023-04-19T10:00:18.064Z,98550.93
2023-04-19T10:05:41.671Z,98546.68
2023-04-19T10:11:04.153Z,98550.13
2023-04-19T10:16:30.879Z,98545.39
2023-04-19T10:21:53.226Z,98537.92
2023-04-19T10:27:15.169Z,98540.52
2023-04-19T10:32:43.774Z,98540.25
2023-04-19T10:38:13.518Z,98537.09
2023-04-19T10:43:35.883Z,98538.89
2023-04-19T10:48:59.334Z,98544.91
2023-04-19T10:54:27.480Z,98553.46
2023-04-19T11:00:25.959Z,98560.06
2023-04-19T11:06:16.704Z,98564.45
2023-04-19T11:11:38.305Z,98567.21
2023-04-19T11:17:02.629Z,98566.64
2023-04-19T11:22:36.165Z,98563.82
2023-04-19T11:27:57.938Z,98563.31
2023-04-19T11:33:25.855Z,98560.88
2023-04-19T11:38:48.727Z,98559.61
2023-04-19T11:44:20.490Z,98566.67
2023-04-19T11:49:42.520Z,98568.77
2023-04-19T11:55:18.463Z,98565.41
2023-04-19T12:00:40.342Z,98566.10
2023-04-19T12:06:04.378Z,98566.66
2023-04-19T12:11:50.104Z,98561.77
2023-04-19T12:17:14.146Z,98567.79
2023-04-19T12:22:36.447Z,98573.30
2023-04-19T12:27:58.369Z,98578.61
2023-04-19T12:33:21.688Z,98581.41
2023-04-19T12:38:45.946Z,98580.11
2023-04-19T12:44:07.756Z,98572.80
2023-04-19T12:49:29.897Z,98572.16
2023-04-19T12:54:51.523Z,98569.48
2023-04-19T13:00:14.516Z,98577.13
2023-04-19T13:05:36.526Z,98573.13
2023-04-19T13:11:00.997Z,98576.02
2023-04-19T13:16:23.570Z,98573.65
2023-04-19T13:21:45.948Z,98576.66
2023-04-19T13:27:09.066Z,98576.63
2023-04-19T13:32:31.281Z,98573.97
2023-04-19T13:37:53.483Z,98574.80
2023-04-19T13:43:15.757Z,98572.29
2023-04-19T13:48:37.653Z,98573.54
2023-04-19T13:53:59.580Z,98579.19
2023-04-19T13:59:21.830Z,98582.19
2023-04-19T14:04:43.529Z,98583.70
2023-04-19T14:10:07.382Z,98581.92
2023-04-19T14:15:28.927Z,98581.38
2023-04-19T14:20:51.145Z,98574.71
2023-04-19T14:26:12.592Z,98577.10
2023-04-19T14:31:34.852Z,98572.16
2023-04-19T14:36:56.921Z,98572.90
2023-04-19T14:42:20.790Z,98570.92
2023-04-19T14:47:44.255Z,98573.28
2023-04-19T14:53:06.074Z,98578.84
2023-04-19T14:58:28.245Z,98578.77
2023-04-19T15:03:50.500Z,98576.64
2023-04-19T15:09:13.334Z,98578.19
2023-04-19T15:14:35.328Z,98577.01
2023-04-19T15:19:57.167Z,98577.46
2023-04-19T15:25:18.916Z,98578.55
2023-04-19T15:30:41.245Z,98582.59
2023-04-19T15:36:04.157Z,98585.67
2023-04-19T15:41:25.949Z,98586.02
2023-04-19T15:46:48.179Z,98591.52
2023-04-19T15:52:09.788Z,98596.03
2023-04-19T15:57:31.584Z,98600.95
2023-04-19T16:02:54.017Z,98615.88
2023-04-19T16:08:19.475Z,98617.98
2023-04-19T16:13:41.544Z,98623.32
2023-04-19T16:19:03.584Z,98623.71
2023-04-19T16:24:25.342Z,98622.89
2023-04-19T16:29:47.133Z,98620.17
2023-04-19T16:35:09.373Z,98618.45
2023-04-19T16:40:31.090Z,98625.66
2023-04-19T16:45:53.204Z,98622.45
2023-04-19T16:51:15.062Z,98621.34
2023-04-19T16:56:37.080Z,98623.35
2023-04-19T17:02:01.453Z,98632.29
2023-04-19T17:07:24.200Z,98637.68
2023-04-19T17:12:46.380Z,98641.75
2023-04-19T17:18:08.593Z,98642.34
2023-04-19T17:23:30.169Z,98645.16
2023-04-19T17:28:52.269Z,98648.12
2023-04-19T17:34:13.999Z,98650.30
2023-04-19T17:39:36.101Z,98657.50
2023-04-19T17:44:59.441Z,98655.79
2023-04-19T17:50:21.352Z,98664.05
2023-04-19T17:55:43.001Z,98671.68
2023-04-19T18:01:06.790Z,98681.09
2023-04-19T18:06:28.772Z,98683.30
2023-04-19T18:11:50.789Z,98683.26
2023-04-19T18:17:12.220Z,98690.62
2023-04-19T18:22:34.247Z,98688.14
2023-04-19T18:27:56.060Z,98683.88
2023-04-19T18:33:18.002Z,98679.28
2023-04-19T18:38:39.931Z,98686.94
2023-04-19T18:49:26.701Z,98698.33
2023-04-19T18:54:48.729Z,98705.88
2023-04-19T19:00:11.433Z,98706.90
2023-04-19T19:05:33.520Z,98704.79
2023-04-19T19:16:21.096Z,98704.54
2023-04-19T19:21:42.694Z,98704.05
2023-04-19T19:27:05.024Z,98704.92
2023-04-19T19:32:26.481Z,98707.59
2023-04-19T19:37:48.709Z,98713.35
2023-04-19T19:43:11.517Z,98715.84
2023-04-19T19:48:40.183Z,98722.77
2023-04-19T19:54:04.273Z,98722.32
2023-04-19T19:59:29.972Z,98726.45
2023-04-19T20:04:54.694Z,98731.14
2023-04-19T20:10:17.403Z,98733.77
2023-04-19T20:15:40.054Z,98728.96
2023-04-19T20:21:01.837Z,98718.35
2023-04-19T20:26:23.917Z,98719.08
2023-04-19T20:31:46.009Z,98712.60
2023-04-19T20:37:08.266Z,98709.00
2023-04-19T20:42:30.210Z,98712.42
2023-04-19T20:47:52.372Z,98715.29
2023-04-19T20:53:14.064Z,98716.16
2023-04-19T20:58:38.195Z,98715.98
2023-04-19T21:04:00.173Z,98717.59
2023-04-19T21:09:22.156Z,98710.88
2023-04-19T21:14:46.587Z,98708.41
2023-04-19T21:20:14.712Z,98703.10
2023-04-19T21:25:37.276Z,98706.33
2023-04-19T21:30:59.421Z,98707.06
2023-04-19T21:36:21.037Z,98706.98
2023-04-19T21:41:42.869Z,98704.62
2023-04-19T21:47:05.056Z,98705.23
2023-04-19T21:52:26.925Z,98713.69
2023-04-19T21:57:50.065Z,98718.15
2023-04-19T22:03:12.248Z,98719.27
2023-04-19T22:08:34.632Z,98722.72
2023-04-19T22:13:56.454Z,98723.27
2023-04-19T22:19:20.196Z,98728.73
2023-04-19T22:24:56.247Z,98722.06
2023-04-19T22:30:19.883Z,98729.02
2023-04-19T22:35:42.357Z,98730.73
2023-04-19T22:41:04.698Z,98734.88
2023-04-19T22:46:26.667Z,98735.63
2023-04-19T22:51:48.966Z,98733.69
2023-04-19T22:57:12.188Z,98735.81
2023-04-19T23:02:34.637Z,98731.38
2023-04-19T23:07:59.288Z,98729.65
2023-04-19T23:13:21.261Z,98721.30
2023-04-19T23:18:45.471Z,98713.62
2023-04-19T23:24:07.407Z,98719.77
2023-04-19T23:29:29.736Z,98716.86
2023-04-19T23:34:53.065Z,98704.87
2023-04-19T23:40:15.306Z,98700.21
2023-04-19T23:45:37.245Z,98692.15
2023-04-19T23:50:58.969Z,98695.16
2023-04-19T23:56:20.988Z,98699.19
